Time;durP1;ratioP1;P1;durP2;ratioP2;P2;SDS_P1;SDS_P2;PMS_P1;PMS_P2;Temp;Humidity;BMP_temperature;BMP_pressure;BME280_temperature;BME280_humidity;BME280_pressure;Samples;Min_cycle;Max_cycle;Signal;HPM_P1;HPM_P2
2023/03/31 00:01:03;;;;;;;19.83;7.50;;;;;;;;;;5025865;28;20379;-59
2023/03/31 00:03:28;;;;;;;16.90;8.18;;;;;;;;;;5025334;28;20026;-61
2023/03/31 00:05:57;;;;;;;19.45;8.93;;;;;;;;;;5025466;28;20028;-62
2023/03/31 00:08:23;;;;;;;14.80;8.73;;;;;;;;;;5024859;28;20038;-62
2023/03/31 00:10:48;;;;;;;19.23;9.52;;;;;;;;;;5025423;28;20038;-60
2023/03/31 00:13:14;;;;;;;15.35;8.57;;;;;;;;;;5024664;28;20060;-61
2023/03/31 00:15:40;;;;;;;16.25;8.25;;;;;;;;;;5025080;28;20022;-60
2023/03/31 00:18:05;;;;;;;13.40;8.60;;;;;;;;;;5025447;28;20056;-62
2023/03/31 00:20:32;;;;;;;19.00;8.93;;;;;;;;;;5024912;28;20497;-61
2023/03/31 00:23:00;;;;;;;15.15;8.32;;;;;;;;;;5024418;28;20044;-61
2023/03/31 00:25:25;;;;;;;12.60;8.05;;;;;;;;;;5023740;28;20101;-61
2023/03/31 00:27:51;;;;;;;10.50;7.40;;;;;;;;;;5025631;28;20551;-63
2023/03/31 00:30:17;;;;;;;12.38;7.82;;;;;;;;;;5026648;28;20265;-63
2023/03/31 00:32:42;;;;;;;18.20;7.38;;;;;;;;;;5028783;28;20252;-57
2023/03/31 00:35:08;;;;;;;13.05;7.38;;;;;;;;;;5028952;28;20077;-62
2023/03/31 00:37:33;;;;;;;15.23;7.93;;;;;;;;;;5028711;28;20021;-61
2023/03/31 00:39:59;;;;;;;13.07;7.60;;;;;;;;;;5028571;28;20051;-63
2023/03/31 00:42:24;;;;;;;16.90;7.07;;;;;;;;;;5027474;28;20025;-61
2023/03/31 00:45:08;;;;;;;11.18;6.93;;;;;;;;;;5027333;28;20028;-59
2023/03/31 00:47:33;;;;;;;14.60;7.75;;;;;;;;;;5028021;28;20036;-62
2023/03/31 00:49:59;;;;;;;13.70;8.25;;;;;;;;;;5027664;28;20108;-62
2023/03/31 00:52:31;;;;;;;7.97;6.65;;;;;;;;;;5024591;28;20029;-61
2023/03/31 00:54:59;;;;;;;13.63;7.15;;;;;;;;;;5025527;28;20069;-60
2023/03/31 00:57:27;;;;;;;13.80;7.28;;;;;;;;;;5026090;28;20164;-63
2023/03/31 00:59:56;;;;;;;16.58;8.07;;;;;;;;;;5026259;28;20025;-62
2023/03/31 01:02:24;;;;;;;16.60;7.78;;;;;;;;;;5026024;28;20108;-60
2023/03/31 01:04:53;;;;;;;12.77;7.88;;;;;;;;;;5009723;28;20576;-62
2023/03/31 01:07:24;;;;;;;14.07;7.72;;;;;;;;;;5025761;28;20376;-61
2023/03/31 01:09:53;;;;;;;10.48;8.00;;;;;;;;;;5025401;28;20088;-62
2023/03/31 01:12:19;;;;;;;11.23;7.93;;;;;;;;;;5025032;28;20057;-60
2023/03/31 01:14:45;;;;;;;12.48;7.57;;;;;;;;;;5025324;28;20061;-62
2023/03/31 01:17:10;;;;;;;12.52;7.47;;;;;;;;;;5025075;28;20487;-61
2023/03/31 01:19:51;;;;;;;12.50;7.30;;;;;;;;;;5025096;28;20513;-63
2023/03/31 01:22:16;;;;;;;14.25;7.63;;;;;;;;;;5024413;28;20100;-60
2023/03/31 01:24:46;;;;;;;11.45;7.47;;;;;;;;;;5027508;28;20105;-63
2023/03/31 01:27:30;;;;;;;13.02;7.65;;;;;;;;;;5027890;28;20036;-62
2023/03/31 01:30:14;;;;;;;12.90;7.43;;;;;;;;;;5027467;28;20030;-59
2023/03/31 01:32:39;;;;;;;14.50;6.68;;;;;;;;;;5027131;28;20055;-61
2023/03/31 01:35:13;;;;;;;10.73;7.03;;;;;;;;;;5027322;28;20128;-62
2023/03/31 01:37:57;;;;;;;9.32;6.70;;;;;;;;;;5027012;28;20065;-61
2023/03/31 01:40:30;;;;;;;10.70;6.25;;;;;;;;;;5026888;28;20021;-62
2023/03/31 01:42:58;;;;;;;8.93;6.15;;;;;;;;;;5026438;28;20034;-61
2023/03/31 01:45:23;;;;;;;13.85;6.60;;;;;;;;;;5027287;28;20018;-62
2023/03/31 01:47:56;;;;;;;8.73;6.18;;;;;;;;;;5027182;28;20021;-62
2023/03/31 01:50:34;;;;;;;14.55;5.82;;;;;;;;;;5026793;28;20036;-60
2023/03/31 01:52:59;;;;;;;9.32;5.70;;;;;;;;;;5026677;28;20615;-62
2023/03/31 01:55:40;;;;;;;9.20;6.40;;;;;;;;;;5026590;28;20014;-62
2023/03/31 01:58:12;;;;;;;13.50;6.78;;;;;;;;;;5026841;28;20136;-62
2023/03/31 02:00:40;;;;;;;8.90;5.63;;;;;;;;;;5026338;28;20036;-61
2023/03/31 02:03:16;;;;;;;9.00;5.90;;;;;;;;;;5026370;28;20474;-61
2023/03/31 02:05:56;;;;;;;12.32;6.45;;;;;;;;;;5026686;28;20018;-62
2023/03/31 02:08:22;;;;;;;;;;;;;;;;;;5027160;28;20060;-61
2023/03/31 02:10:48;;;;;;;8.23;6.00;;;;;;;;;;5026248;28;19953;-62
2023/03/31 02:13:14;;;;;;;11.02;6.50;;;;;;;;;;5026222;28;20045;-60
2023/03/31 02:15:41;;;;;;;11.38;6.03;;;;;;;;;;5025973;28;20021;-60
2023/03/31 02:18:10;;;;;;;12.65;7.10;;;;;;;;;;5026385;28;20426;-60
2023/03/31 02:20:37;;;;;;;10.23;6.45;;;;;;;;;;5026077;28;20215;-62
2023/03/31 02:23:03;;;;;;;13.15;6.97;;;;;;;;;;5025929;28;20029;-61
2023/03/31 02:25:32;;;;;;;8.98;6.47;;;;;;;;;;5025612;28;20024;-60
2023/03/31 02:28:04;;;;;;;9.00;7.10;;;;;;;;;;5025972;28;20494;-61
2023/03/31 02:30:35;;;;;;;12.07;7.18;;;;;;;;;;5026244;28;20506;-60
2023/03/31 02:33:03;;;;;;;15.25;7.18;;;;;;;;;;5023563;28;20046;-60
2023/03/31 02:35:29;;;;;;;10.38;7.00;;;;;;;;;;5026116;28;20050;-61
2023/03/31 02:37:57;;;;;;;10.57;6.40;;;;;;;;;;5025715;28;20021;-60
2023/03/31 02:40:26;;;;;;;14.05;7.25;;;;;;;;;;5025847;28;20471;-62
2023/03/31 02:42:52;;;;;;;8.90;6.22;;;;;;;;;;5025425;28;20173;-62
2023/03/31 02:45:55;;;;;;;9.82;6.95;;;;;;;;;;5025463;28;20033;-61
2023/03/31 02:48:24;;;;;;;8.05;6.43;;;;;;;;;;4983400;28;20101;-60
2023/03/31 02:51:06;;;;;;;9.75;6.60;;;;;;;;;;4983195;28;20602;-61
2023/03/31 02:53:34;;;;;;;12.05;6.32;;;;;;;;;;4983005;28;20039;-61
2023/03/31 02:55:59;;;;;;;10.50;6.30;;;;;;;;;;4983061;28;20022;-60
2023/03/31 02:58:40;;;;;;;11.35;6.35;;;;;;;;;;4982804;28;20026;-62
2023/03/31 03:01:05;;;;;;;12.20;6.65;;;;;;;;;;4983119;28;20184;-62
2023/03/31 03:03:39;;;;;;;8.65;6.35;;;;;;;;;;4982697;28;20085;-62
2023/03/31 03:06:15;;;;;;;14.05;6.90;;;;;;;;;;4983021;28;20038;-62
2023/03/31 03:08:59;;;;;;;12.25;6.93;;;;;;;;;;4982878;28;20026;-62
2023/03/31 03:11:43;;;;;;;9.30;6.03;;;;;;;;;;4982805;28;20097;-61
2023/03/31 03:14:20;;;;;;;13.57;6.47;;;;;;;;;;4982959;28;20041;-62
2023/03/31 03:17:14;;;;;;;12.55;5.85;;;;;;;;;;4982608;28;20117;-59
2023/03/31 03:19:41;;;;;;;14.15;6.63;;;;;;;;;;4966010;28;20133;-61
2023/03/31 03:22:06;;;;;;;11.10;6.72;;;;;;;;;;4982451;28;20022;-62
2023/03/31 03:24:33;;;;;;;11.05;6.55;;;;;;;;;;4982575;28;20121;-60
2023/03/31 03:26:59;;;;;;;10.93;6.95;;;;;;;;;;4983072;28;20439;-61
2023/03/31 03:29:26;;;;;;;14.15;6.93;;;;;;;;;;4983122;28;20051;-60
2023/03/31 03:31:51;;;;;;;12.60;6.55;;;;;;;;;;4982733;28;20042;-60
2023/03/31 03:34:17;;;;;;;12.02;6.93;;;;;;;;;;4982585;28;20069;-61
2023/03/31 03:36:42;;;;;;;13.93;7.60;;;;;;;;;;4982803;28;20495;-61
2023/03/31 03:39:08;;;;;;;10.15;6.50;;;;;;;;;;4982383;28;20542;-59
2023/03/31 03:41:33;;;;;;;10.32;7.07;;;;;;;;;;4982368;28;20095;-61
2023/03/31 03:43:59;;;;;;;32.92;18.30;;;;;;;;;;4982457;28;20038;-62
2023/03/31 03:46:24;;;;;;;18.95;8.88;;;;;;;;;;4982603;28;20030;-61
2023/03/31 03:48:50;;;;;;;18.67;10.85;;;;;;;;;;4982286;28;20027;-61
2023/03/31 03:51:15;;;;;;;18.38;9.57;;;;;;;;;;4982353;28;20659;-62
2023/03/31 03:53:41;;;;;;;14.20;8.25;;;;;;;;;;4982397;28;20054;-61
2023/03/31 03:56:06;;;;;;;14.13;8.38;;;;;;;;;;4986053;28;20061;-61
2023/03/31 03:58:31;;;;;;;15.55;9.20;;;;;;;;;;5024333;28;20024;-62
2023/03/31 04:00:57;;;;;;;13.27;7.97;;;;;;;;;;5024481;28;20083;-60
2023/03/31 04:03:22;;;;;;;9.93;7.53;;;;;;;;;;5024606;28;20486;-60
2023/03/31 04:05:48;;;;;;;17.25;8.45;;;;;;;;;;5027676;28;20018;-59
2023/03/31 04:08:14;;;;;;;16.73;7.60;;;;;;;;;;5028765;28;20025;-61
2023/03/31 04:10:43;;;;;;;13.63;7.55;;;;;;;;;;5028272;28;20030;-58
2023/03/31 04:13:08;;;;;;;12.70;8.35;;;;;;;;;;5009459;28;20033;-61
2023/03/31 04:15:33;;;;;;;14.73;8.15;;;;;;;;;;5028471;28;20426;-62
2023/03/31 04:17:59;;;;;;;15.40;7.93;;;;;;;;;;5028613;28;20070;-61
2023/03/31 04:20:26;;;;;;;14.23;8.45;;;;;;;;;;5028033;28;20442;-62
2023/03/31 04:22:51;;;;;;;11.23;8.00;;;;;;;;;;5026431;28;20026;-61
2023/03/31 04:25:17;;;;;;;11.52;8.45;;;;;;;;;;5028195;28;20036;-62
2023/03/31 04:27:45;;;;;;;20.35;8.60;;;;;;;;;;5027969;28;20367;-62
2023/03/31 04:30:23;;;;;;;16.67;8.10;;;;;;;;;;5028305;28;20029;-61
2023/03/31 04:32:49;;;;;;;14.40;8.68;;;;;;;;;;5027817;28;20108;-62
2023/03/31 04:35:16;;;;;;;14.30;7.60;;;;;;;;;;5028035;28;20060;-61
2023/03/31 04:37:42;;;;;;;15.48;8.23;;;;;;;;;;5026706;28;20018;-62
2023/03/31 04:40:08;;;;;;;14.38;7.75;;;;;;;;;;5027834;28;20022;-62
2023/03/31 04:42:34;;;;;;;15.35;7.85;;;;;;;;;;5028118;28;20017;-62
2023/03/31 04:44:59;;;;;;;12.60;8.63;;;;;;;;;;5027926;28;20407;-61
2023/03/31 04:47:25;;;;;;;14.30;7.90;;;;;;;;;;5027813;28;20048;-56
2023/03/31 04:49:50;;;;;;;20.05;8.88;;;;;;;;;;5027889;28;20490;-62
2023/03/31 04:52:15;;;;;;;15.77;8.43;;;;;;;;;;5027832;28;20068;-59
2023/03/31 04:54:41;;;;;;;18.80;8.98;;;;;;;;;;5027178;28;20565;-62
2023/03/31 04:57:06;;;;;;;16.45;8.25;;;;;;;;;;5027180;28;20523;-60
2023/03/31 04:59:32;;;;;;;18.23;8.57;;;;;;;;;;5027504;28;20080;-62
2023/03/31 05:01:57;;;;;;;17.73;10.07;;;;;;;;;;5027400;28;20488;-61
2023/03/31 05:04:22;;;;;;;22.58;9.82;;;;;;;;;;5041023;28;20049;-61
2023/03/31 05:06:47;;;;;;;20.10;9.93;;;;;;;;;;5027941;28;20036;-61
2023/03/31 05:09:13;;;;;;;15.48;9.05;;;;;;;;;;5027173;28;20048;-62
2023/03/31 05:11:38;;;;;;;17.27;9.05;;;;;;;;;;5027118;28;20025;-60
2023/03/31 05:14:03;;;;;;;14.98;9.68;;;;;;;;;;5040965;28;20041;-59
2023/03/31 05:16:28;;;;;;;16.42;8.30;;;;;;;;;;5027147;28;20037;-62
2023/03/31 05:18:54;;;;;;;16.48;8.52;;;;;;;;;;5027318;28;20262;-61
2023/03/31 05:21:20;;;;;;;19.83;9.30;;;;;;;;;;5026922;28;20021;-58
2023/03/31 05:23:45;;;;;;;17.08;7.43;;;;;;;;;;5026759;28;20080;-58
2023/03/31 05:26:10;;;;;;;13.98;7.53;;;;;;;;;;5026612;28;20021;-61
2023/03/31 05:28:36;;;;;;;13.88;7.50;;;;;;;;;;5026375;28;20381;-63
2023/03/31 05:31:02;;;;;;;11.90;6.38;;;;;;;;;;5026829;28;20022;-61
2023/03/31 05:33:28;;;;;;;9.00;6.28;;;;;;;;;;5026611;28;20034;-61
2023/03/31 05:35:54;;;;;;;16.05;6.40;;;;;;;;;;5025821;28;20091;-61
2023/03/31 05:38:20;;;;;;;10.98;7.18;;;;;;;;;;5027056;28;20049;-62
2023/03/31 05:40:46;;;;;;;10.15;6.53;;;;;;;;;;5026996;28;20017;-60
2023/03/31 05:43:11;;;;;;;10.32;5.97;;;;;;;;;;5026887;28;20034;-60
2023/03/31 05:45:37;;;;;;;10.48;5.30;;;;;;;;;;5026518;28;20033;-59
2023/03/31 05:48:02;;;;;;;8.30;5.53;;;;;;;;;;5037555;28;20485;-61
2023/03/31 05:50:27;;;;;;;7.00;4.75;;;;;;;;;;5024127;28;20041;-60
2023/03/31 05:52:53;;;;;;;7.72;5.18;;;;;;;;;;5026457;28;20026;-61
2023/03/31 05:55:18;;;;;;;8.77;4.82;;;;;;;;;;5027368;28;20028;-61
2023/03/31 05:57:43;;;;;;;8.00;4.55;;;;;;;;;;5027685;28;20441;-61
2023/03/31 06:00:10;;;;;;;9.13;4.65;;;;;;;;;;5027509;28;20017;-62
2023/03/31 06:02:36;;;;;;;7.60;4.72;;;;;;;;;;5027142;28;20692;-62
2023/03/31 06:05:02;;;;;;;5.75;3.90;;;;;;;;;;5025734;28;20014;-61
2023/03/31 06:07:27;;;;;;;14.38;4.28;;;;;;;;;;5019459;28;20033;-61
2023/03/31 06:09:53;;;;;;;5.85;3.72;;;;;;;;;;5023268;28;20490;-62
2023/03/31 06:12:18;;;;;;;7.70;4.03;;;;;;;;;;5026375;28;20568;-62
2023/03/31 06:14:43;;;;;;;10.25;4.45;;;;;;;;;;5025890;28;20025;-60
2023/03/31 06:17:08;;;;;;;6.68;3.60;;;;;;;;;;5025842;28;20024;-60
2023/03/31 06:19:34;;;;;;;5.78;3.30;;;;;;;;;;5024435;28;20504;-59
2023/03/31 06:22:00;;;;;;;5.50;3.28;;;;;;;;;;5025224;28;20056;-59
2023/03/31 06:24:25;;;;;;;3.80;2.80;;;;;;;;;;5021996;28;20033;-57
2023/03/31 06:26:50;;;;;;;6.72;2.90;;;;;;;;;;5023285;28;20144;-60
2023/03/31 06:29:16;;;;;;;5.55;2.95;;;;;;;;;;5024116;28;20060;-54
2023/03/31 06:31:41;;;;;;;7.40;2.97;;;;;;;;;;5025698;28;20417;-56
2023/03/31 06:34:06;;;;;;;7.75;3.17;;;;;;;;;;5023652;28;20041;-56
2023/03/31 06:36:32;;;;;;;3.78;2.75;;;;;;;;;;5035267;28;20029;-57
2023/03/31 06:38:57;;;;;;;3.25;2.42;;;;;;;;;;5022856;28;20064;-58
2023/03/31 06:41:22;;;;;;;4.50;2.40;;;;;;;;;;5030219;28;20009;-58
2023/03/31 06:43:48;;;;;;;10.05;2.97;;;;;;;;;;5030738;28;20033;-57
2023/03/31 06:46:13;;;;;;;3.97;2.30;;;;;;;;;;5020253;28;20026;-58
2023/03/31 06:48:40;;;;;;;7.13;3.40;;;;;;;;;;5027631;28;20013;-56
2023/03/31 06:51:05;;;;;;;8.63;2.60;;;;;;;;;;5029432;28;20467;-58
2023/03/31 06:53:31;;;;;;;5.40;2.40;;;;;;;;;;5029617;28;20037;-57
2023/03/31 06:55:56;;;;;;;5.88;2.55;;;;;;;;;;5012660;28;20018;-58
2023/03/31 06:58:22;;;;;;;6.35;2.47;;;;;;;;;;5017922;28;20029;-59
2023/03/31 07:00:47;;;;;;;10.73;2.90;;;;;;;;;;5023554;28;20032;-59
2023/03/31 07:03:13;;;;;;;14.40;3.60;;;;;;;;;;5025214;28;20467;-57
2023/03/31 07:05:39;;;;;;;8.77;2.17;;;;;;;;;;5018000;28;20025;-61
2023/03/31 07:08:04;;;;;;;4.63;2.22;;;;;;;;;;5019375;28;20489;-62
2023/03/31 07:10:30;;;;;;;4.07;1.98;;;;;;;;;;5020545;28;20167;-63
2023/03/31 07:12:56;;;;;;;3.53;2.17;;;;;;;;;;5020947;28;20029;-64
2023/03/31 07:15:21;;;;;;;10.63;3.05;;;;;;;;;;5021531;28;20029;-64
2023/03/31 07:17:49;;;;;;;8.88;2.55;;;;;;;;;;5018839;28;20029;-60
2023/03/31 07:20:15;;;;;;;6.78;2.60;;;;;;;;;;5022210;28;20102;-58
2023/03/31 07:22:41;;;;;;;8.45;3.50;;;;;;;;;;5011406;28;20100;-58
2023/03/31 07:25:07;;;;;;;14.35;3.08;;;;;;;;;;5022599;28;20463;-58
2023/03/31 07:27:33;;;;;;;9.77;3.20;;;;;;;;;;5027164;28;20383;-55
2023/03/31 07:29:58;;;;;;;7.45;3.17;;;;;;;;;;5040217;28;20021;-56
2023/03/31 07:34:48;;;;;;;12.07;3.33;;;;;;;;;;5049149;28;20411;-57
2023/03/31 07:37:14;;;;;;;449.83;329.88;;;;;;;;;;5043484;28;20037;-56
2023/03/31 07:39:40;;;;;;;26.90;14.27;;;;;;;;;;5036645;28;20044;-57
2023/03/31 07:42:05;;;;;;;8.07;2.55;;;;;;;;;;5041423;28;20036;-58
2023/03/31 07:44:33;;;;;;;9.00;2.83;;;;;;;;;;5037114;28;20033;-57
2023/03/31 07:47:03;;;;;;;7.43;2.47;;;;;;;;;;5036902;28;20143;-62
2023/03/31 07:49:28;;;;;;;7.55;2.30;;;;;;;;;;5037263;28;20051;-61
2023/03/31 07:51:54;;;;;;;12.68;3.53;;;;;;;;;;5039271;28;20017;-61
2023/03/31 07:54:19;;;;;;;400.63;264.63;;;;;;;;;;5035032;28;20029;-61
2023/03/31 07:56:44;;;;;;;410.08;312.27;;;;;;;;;;5038071;28;20828;-60
2023/03/31 07:59:09;;;;;;;5.13;3.13;;;;;;;;;;5035680;28;20434;-60
2023/03/31 08:01:35;;;;;;;79.80;38.10;;;;;;;;;;5036049;28;20255;-58
2023/03/31 08:04:00;;;;;;;252.10;191.90;;;;;;;;;;5033641;28;20657;-62
2023/03/31 08:06:27;;;;;;;23.80;13.85;;;;;;;;;;5034398;28;20033;-59
2023/03/31 08:08:53;;;;;;;54.15;37.60;;;;;;;;;;5036469;28;20108;-61
2023/03/31 08:11:20;;;;;;;5.63;2.45;;;;;;;;;;5037958;28;20421;-60
2023/03/31 08:13:45;;;;;;;6.82;2.67;;;;;;;;;;5038158;28;20044;-59
2023/03/31 08:16:10;;;;;;;7.50;2.35;;;;;;;;;;5037676;28;20440;-60
2023/03/31 08:18:36;;;;;;;4.40;2.40;;;;;;;;;;5038267;28;20025;-59
2023/03/31 08:21:01;;;;;;;3.22;2.35;;;;;;;;;;5049539;28;20258;-57
2023/03/31 08:23:26;;;;;;;5.32;2.90;;;;;;;;;;5034545;28;20124;-55
2023/03/31 08:25:52;;;;;;;6.55;2.22;;;;;;;;;;5032015;28;20041;-53
2023/03/31 08:28:17;;;;;;;5.20;2.37;;;;;;;;;;5039599;28;20082;-56
2023/03/31 08:30:42;;;;;;;5.45;2.35;;;;;;;;;;5038400;28;20782;-57
2023/03/31 08:33:08;;;;;;;4.75;2.30;;;;;;;;;;5038170;28;20131;-54
2023/03/31 08:35:34;;;;;;;6.95;2.47;;;;;;;;;;5036790;28;20481;-56
2023/03/31 08:38:00;;;;;;;4.35;2.35;;;;;;;;;;5039759;28;20392;-58
2023/03/31 08:40:26;;;;;;;5.18;2.35;;;;;;;;;;5037234;28;20037;-58
2023/03/31 08:42:52;;;;;;;9.63;2.42;;;;;;;;;;5038959;28;20143;-57
2023/03/31 08:45:18;;;;;;;4.72;1.92;;;;;;;;;;5028070;28;20524;-58
2023/03/31 08:47:44;;;;;;;6.20;1.83;;;;;;;;;;5034684;28;20124;-57
2023/03/31 08:50:17;;;;;;;5.28;2.33;;;;;;;;;;5023329;28;20634;-56
2023/03/31 08:52:47;;;;;;;10.40;2.83;;;;;;;;;;5033369;28;20024;-59
2023/03/31 08:55:18;;;;;;;7.80;2.40;;;;;;;;;;5021631;28;20535;-58
2023/03/31 08:58:05;;;;;;;4.63;1.77;;;;;;;;;;5023331;28;20021;-57
2023/03/31 09:00:39;;;;;;;8.50;3.45;;;;;;;;;;5025535;28;20033;-57
2023/03/31 09:03:08;;;;;;;5.40;2.72;;;;;;;;;;5025414;28;20627;-60
2023/03/31 09:05:43;;;;;;;8.07;2.45;;;;;;;;;;5017639;28;20551;-60
2023/03/31 09:08:08;;;;;;;6.97;2.13;;;;;;;;;;5018091;28;20026;-59
2023/03/31 09:10:43;;;;;;;4.67;2.20;;;;;;;;;;5024048;28;20025;-59
2023/03/31 09:13:20;;;;;;;3.67;2.03;;;;;;;;;;5025436;28;20302;-58
2023/03/31 09:15:46;;;;;;;4.13;2.00;;;;;;;;;;5033403;28;20461;-58
2023/03/31 09:18:29;;;;;;;6.63;2.20;;;;;;;;;;5030836;28;20028;-59
2023/03/31 09:20:59;;;;;;;7.70;2.08;;;;;;;;;;5015667;28;20409;-56
2023/03/31 09:23:27;;;;;;;3.17;1.55;;;;;;;;;;5024367;28;20034;-59
2023/03/31 09:25:52;;;;;;;5.30;2.03;;;;;;;;;;5025876;28;20021;-57
2023/03/31 09:28:29;;;;;;;3.78;1.85;;;;;;;;;;5027460;28;20393;-59
2023/03/31 09:30:55;;;;;;;3.60;1.45;;;;;;;;;;5023395;28;20121;-57
2023/03/31 09:33:30;;;;;;;5.43;1.92;;;;;;;;;;5017412;28;20139;-57
2023/03/31 09:35:57;;;;;;;3.45;2.17;;;;;;;;;;5017005;28;20025;-57
2023/03/31 09:38:22;;;;;;;7.70;3.15;;;;;;;;;;5020511;28;20336;-57
2023/03/31 09:40:48;;;;;;;7.95;2.05;;;;;;;;;;5014451;28;20284;-56
2023/03/31 09:43:13;;;;;;;4.10;2.15;;;;;;;;;;5016187;28;20018;-57
2023/03/31 09:45:38;;;;;;;3.13;1.90;;;;;;;;;;5013246;28;20079;-59
2023/03/31 09:48:06;;;;;;;3.03;1.80;;;;;;;;;;5016959;28;20017;-57
2023/03/31 09:50:35;;;;;;;5.40;2.10;;;;;;;;;;5015548;28;20025;-57
2023/03/31 09:53:03;;;;;;;4.70;2.97;;;;;;;;;;5015386;28;20037;-55
2023/03/31 09:55:35;;;;;;;5.03;2.47;;;;;;;;;;5016137;28;20025;-58
2023/03/31 09:58:05;;;;;;;3.58;1.73;;;;;;;;;;5015907;28;20022;-57
2023/03/31 10:00:32;;;;;;;2.63;1.55;;;;;;;;;;5014695;28;20387;-57
2023/03/31 10:03:01;;;;;;;5.53;1.75;;;;;;;;;;5016076;28;20029;-57
2023/03/31 10:05:36;;;;;;;2.60;1.80;;;;;;;;;;5015353;28;20264;-58
2023/03/31 10:08:13;;;;;;;3.85;1.90;;;;;;;;;;5014575;28;20111;-56
2023/03/31 10:10:42;;;;;;;5.15;1.40;;;;;;;;;;5013227;28;20029;-56
2023/03/31 10:13:09;;;;;;;3.97;1.40;;;;;;;;;;5015263;28;20104;-56
2023/03/31 10:15:37;;;;;;;3.83;1.70;;;;;;;;;;5012745;28;20018;-53
2023/03/31 10:18:03;;;;;;;5.03;1.55;;;;;;;;;;5013147;28;20020;-55
2023/03/31 10:20:38;;;;;;;2.78;1.60;;;;;;;;;;5016072;28;20449;-59
2023/03/31 10:23:14;;;;;;;5.93;1.95;;;;;;;;;;5012619;28;20062;-57
2023/03/31 10:25:39;;;;;;;7.95;2.50;;;;;;;;;;5021435;28;20095;-58
2023/03/31 10:28:05;;;;;;;6.90;1.90;;;;;;;;;;5017792;28;20017;-60
2023/03/31 10:30:36;;;;;;;4.05;1.55;;;;;;;;;;5025832;28;20075;-59
2023/03/31 10:33:13;;;;;;;8.23;1.98;;;;;;;;;;5021068;28;20054;-53
2023/03/31 10:35:38;;;;;;;5.45;1.83;;;;;;;;;;5024380;28;20484;-56
2023/03/31 10:38:10;;;;;;;7.80;1.98;;;;;;;;;;5040110;28;20025;-58
2023/03/31 10:40:35;;;;;;;11.02;2.45;;;;;;;;;;5038798;28;20104;-59
2023/03/31 10:43:15;;;;;;;11.07;3.67;;;;;;;;;;5022071;28;20120;-57
2023/03/31 10:45:43;;;;;;;5.85;1.48;;;;;;;;;;5020982;28;20036;-58
2023/03/31 10:48:16;;;;;;;5.85;1.67;;;;;;;;;;5022083;28;20095;-58
2023/03/31 10:50:41;;;;;;;3.10;1.60;;;;;;;;;;5018539;28;20026;-57
2023/03/31 10:53:11;;;;;;;3.72;1.58;;;;;;;;;;5024066;28;20079;-57
2023/03/31 10:55:55;;;;;;;4.68;1.80;;;;;;;;;;5018593;28;20035;-59
2023/03/31 10:58:41;;;;;;;4.55;1.40;;;;;;;;;;5021984;28;20029;-57
2023/03/31 11:01:09;;;;;;;4.25;1.83;;;;;;;;;;4992857;28;20072;-56
2023/03/31 11:03:35;;;;;;;3.42;1.60;;;;;;;;;;4998149;28;20120;-57
2023/03/31 11:06:15;;;;;;;4.47;1.73;;;;;;;;;;4994228;28;20117;-58
2023/03/31 11:08:40;;;;;;;3.00;1.60;;;;;;;;;;4996539;28;20029;-58
2023/03/31 11:11:06;;;;;;;6.18;2.10;;;;;;;;;;4989218;28;20455;-58
2023/03/31 11:14:03;;;;;;;5.13;1.97;;;;;;;;;;4995814;28;20326;-56
2023/03/31 11:16:34;;;;;;;12.45;2.55;;;;;;;;;;4952152;28;20341;-59
2023/03/31 11:19:10;;;;;;;5.10;2.35;;;;;;;;;;4938149;29;20061;-57
2023/03/31 11:21:41;;;;;;;3.17;1.50;;;;;;;;;;4939481;28;20027;-59
2023/03/31 11:24:13;;;;;;;6.43;1.60;;;;;;;;;;4942275;28;20039;-58
2023/03/31 11:26:41;;;;;;;7.22;1.60;;;;;;;;;;4939025;29;20122;-55
2023/03/31 11:29:25;;;;;;;6.45;1.50;;;;;;;;;;4940487;28;20376;-58
2023/03/31 11:32:05;;;;;;;4.10;1.40;;;;;;;;;;4941097;29;20049;-58
2023/03/31 11:34:34;;;;;;;8.15;2.05;;;;;;;;;;4941949;29;20074;-58
2023/03/31 11:37:06;;;;;;;4.55;1.50;;;;;;;;;;4939381;29;20474;-57
2023/03/31 11:39:57;;;;;;;19.60;2.55;;;;;;;;;;4979381;28;20031;-58
2023/03/31 11:42:27;;;;;;;2.08;1.55;;;;;;;;;;4919812;29;21230;-59
2023/03/31 11:45:05;;;;;;;3.88;1.55;;;;;;;;;;4921334;29;20110;-58
2023/03/31 11:47:32;;;;;;;6.10;1.85;;;;;;;;;;4921471;29;20136;-56
2023/03/31 11:50:03;;;;;;;2.25;1.60;;;;;;;;;;4919817;29;20094;-56
2023/03/31 11:52:33;;;;;;;7.60;1.70;;;;;;;;;;4958004;28;20121;-58
2023/03/31 11:55:01;;;;;;;3.03;1.70;;;;;;;;;;4979334;28;20030;-59
2023/03/31 11:57:33;;;;;;;4.90;2.00;;;;;;;;;;4972157;28;20026;-58
2023/03/31 12:00:11;;;;;;;6.82;1.70;;;;;;;;;;4977824;28;20066;-58
2023/03/31 12:02:46;;;;;;;2.08;1.58;;;;;;;;;;4977453;28;20400;-59
2023/03/31 12:05:11;;;;;;;3.70;1.73;;;;;;;;;;4975843;28;20173;-59
2023/03/31 12:07:42;;;;;;;2.88;1.52;;;;;;;;;;4975511;28;20113;-58
2023/03/31 12:10:21;;;;;;;4.70;2.05;;;;;;;;;;4974751;28;20295;-58
2023/03/31 12:12:49;;;;;;;4.05;1.52;;;;;;;;;;4971894;28;20050;-58
2023/03/31 12:15:26;;;;;;;2.37;1.43;;;;;;;;;;4972377;28;20401;-59
2023/03/31 12:17:54;;;;;;;6.55;1.55;;;;;;;;;;4980348;28;20022;-58
2023/03/31 12:20:33;;;;;;;6.47;1.80;;;;;;;;;;5022042;28;20029;-58
2023/03/31 12:23:00;;;;;;;5.70;1.67;;;;;;;;;;5029221;28;20116;-59
2023/03/31 12:25:31;;;;;;;4.85;1.73;;;;;;;;;;5024043;28;20021;-59
2023/03/31 12:27:57;;;;;;;2.92;1.25;;;;;;;;;;5028544;28;20035;-58
2023/03/31 12:30:29;;;;;;;2.63;1.50;;;;;;;;;;5020830;28;20028;-58
2023/03/31 12:33:00;;;;;;;4.60;2.00;;;;;;;;;;5017718;28;20058;-56
2023/03/31 12:35:41;;;;;;;3.55;1.90;;;;;;;;;;5023640;28;20091;-56
2023/03/31 12:38:12;;;;;;;5.00;2.47;;;;;;;;;;5022908;28;20030;-58
2023/03/31 12:40:50;;;;;;;9.32;2.08;;;;;;;;;;5023859;28;20254;-57
2023/03/31 12:43:18;;;;;;;4.85;1.58;;;;;;;;;;5025630;28;20013;-55
2023/03/31 12:45:52;;;;;;;5.68;1.40;;;;;;;;;;5013874;28;20037;-56
2023/03/31 12:48:36;;;;;;;4.38;1.80;;;;;;;;;;5013088;28;20035;-55
2023/03/31 12:51:09;;;;;;;6.30;1.63;;;;;;;;;;5031258;28;20397;-56
2023/03/31 12:53:35;;;;;;;3.50;1.40;;;;;;;;;;5023058;28;20034;-55
2023/03/31 12:56:00;;;;;;;2.35;1.30;;;;;;;;;;5033521;28;20086;-53
2023/03/31 12:58:26;;;;;;;3.85;1.70;;;;;;;;;;5020855;28;20025;-57
2023/03/31 13:01:06;;;;;;;4.57;2.78;;;;;;;;;;5025130;28;20423;-59
2023/03/31 13:03:34;;;;;;;5.63;2.00;;;;;;;;;;5017890;28;22036;-59
2023/03/31 13:06:00;;;;;;;4.85;1.88;;;;;;;;;;5022922;28;20062;-57
2023/03/31 13:08:52;;;;;;;6.45;1.70;;;;;;;;;;5023641;28;20033;-55
2023/03/31 13:11:19;;;;;;;4.70;1.42;;;;;;;;;;5001314;28;20073;-60
2023/03/31 13:13:56;;;;;;;5.50;1.88;;;;;;;;;;5002373;28;20457;-60
2023/03/31 13:16:21;;;;;;;3.97;1.55;;;;;;;;;;4969356;28;20038;-53
2023/03/31 13:18:53;;;;;;;4.43;1.55;;;;;;;;;;5002824;28;20014;-54
2023/03/31 13:21:18;;;;;;;9.00;1.60;;;;;;;;;;5007003;28;20022;-56
2023/03/31 13:23:45;;;;;;;5.70;1.50;;;;;;;;;;4999975;28;20091;-53
2023/03/31 13:26:29;;;;;;;4.30;1.85;;;;;;;;;;5001325;28;20067;-56
2023/03/31 13:29:09;;;;;;;10.98;2.45;;;;;;;;;;4993750;28;20049;-58
2023/03/31 13:31:53;;;;;;;6.35;2.70;;;;;;;;;;4994449;28;20029;-54
2023/03/31 13:34:18;;;;;;;10.35;3.90;;;;;;;;;;4984121;28;20053;-55
2023/03/31 13:37:10;;;;;;;9.90;3.63;;;;;;;;;;4997093;28;20197;-55
2023/03/31 13:39:44;;;;;;;4.57;1.75;;;;;;;;;;5002432;28;20038;-55
2023/03/31 13:42:22;;;;;;;6.95;2.15;;;;;;;;;;5003077;28;20402;-51
2023/03/31 13:44:54;;;;;;;8.18;1.98;;;;;;;;;;5003319;28;20468;-52
2023/03/31 13:47:38;;;;;;;7.03;1.85;;;;;;;;;;5006893;28;20064;-52
2023/03/31 13:50:09;;;;;;;7.43;2.20;;;;;;;;;;5025860;28;20021;-55
2023/03/31 13:52:34;;;;;;;4.18;1.98;;;;;;;;;;5025347;28;20033;-54
2023/03/31 13:55:03;;;;;;;7.30;2.00;;;;;;;;;;5025794;28;20022;-57
2023/03/31 13:57:45;;;;;;;7.77;2.40;;;;;;;;;;5025772;28;20025;-55
2023/03/31 14:00:31;;;;;;;8.32;1.88;;;;;;;;;;5025178;28;20255;-55
2023/03/31 14:03:15;;;;;;;5.65;1.75;;;;;;;;;;5025372;28;20041;-55
2023/03/31 14:05:56;;;;;;;8.07;1.83;;;;;;;;;;5025239;28;20473;-57
2023/03/31 14:08:46;;;;;;;6.35;1.85;;;;;;;;;;5026185;28;20056;-56
2023/03/31 14:11:15;;;;;;;8.93;3.67;;;;;;;;;;5025017;28;20029;-56
2023/03/31 14:13:40;;;;;;;4.47;2.67;;;;;;;;;;5025328;28;20021;-57
2023/03/31 14:16:07;;;;;;;3.08;1.50;;;;;;;;;;5006183;28;20030;-57
2023/03/31 14:18:34;;;;;;;7.18;2.47;;;;;;;;;;5024982;28;20021;-54
2023/03/31 14:21:02;;;;;;;6.28;1.50;;;;;;;;;;5025082;28;20579;-56
2023/03/31 14:23:32;;;;;;;6.93;1.65;;;;;;;;;;5024726;28;20029;-53
2023/03/31 14:26:16;;;;;;;9.60;1.80;;;;;;;;;;5039104;28;20452;-56
2023/03/31 14:28:45;;;;;;;5.75;1.55;;;;;;;;;;5025051;28;20021;-54
2023/03/31 14:31:23;;;;;;;4.53;1.63;;;;;;;;;;5025068;28;20075;-56
2023/03/31 14:33:48;;;;;;;9.75;2.67;;;;;;;;;;5024792;28;20061;-55
2023/03/31 14:36:18;;;;;;;5.07;2.03;;;;;;;;;;5041343;28;20568;-54
2023/03/31 14:38:43;;;;;;;4.20;1.38;;;;;;;;;;5041693;28;20254;-55
2023/03/31 14:41:19;;;;;;;5.75;1.95;;;;;;;;;;5041332;28;20079;-58
2023/03/31 14:43:47;;;;;;;3.90;1.50;;;;;;;;;;5041080;28;20475;-55
2023/03/31 14:46:17;;;;;;;9.48;2.00;;;;;;;;;;5024698;28;20033;-54
2023/03/31 14:48:44;;;;;;;7.93;1.80;;;;;;;;;;5041376;28;20025;-53
2023/03/31 14:51:10;;;;;;;2.58;1.30;;;;;;;;;;5041587;28;20124;-51
2023/03/31 14:53:35;;;;;;;9.60;2.33;;;;;;;;;;5041491;28;20195;-57